createdAt,value
2018-10-18T00:04:01.351Z,10.93
2018-10-18T00:09:07.792Z,12.97
2018-10-18T00:14:11.476Z,11.50
2018-10-18T00:19:14.954Z,11.33
2018-10-18T00:24:18.542Z,10.77
2018-10-18T00:29:22.079Z,10.90
2018-10-18T00:34:25.758Z,10.57
2018-10-18T00:39:29.430Z,10.27
2018-10-18T00:44:33.071Z,9.30
2018-10-18T00:49:36.631Z,8.50
2018-10-18T00:54:40.238Z,8.87
2018-10-18T00:59:43.845Z,9.87
2018-10-18T01:04:47.442Z,8.67
2018-10-18T01:09:51.022Z,10.03
2018-10-18T01:14:54.639Z,9.97
2018-10-18T01:19:58.658Z,8.87
2018-10-18T01:25:02.182Z,7.63
2018-10-18T01:30:06.612Z,6.97
2018-10-18T01:35:10.268Z,7.00
2018-10-18T01:40:13.870Z,7.07
2018-10-18T01:45:18.531Z,7.77
2018-10-18T01:50:22.123Z,8.20
2018-10-18T01:55:25.668Z,8.97
2018-10-18T02:00:29.420Z,8.80
2018-10-18T02:05:33.035Z,8.27
2018-10-18T02:10:36.659Z,8.23
2018-10-18T02:15:40.259Z,8.67
2018-10-18T02:20:43.778Z,9.23
2018-10-18T02:25:47.319Z,8.57
2018-10-18T02:30:51.963Z,10.17
2018-10-18T02:35:55.695Z,9.93
2018-10-18T02:40:59.317Z,11.00
2018-10-18T02:46:03.958Z,11.30
2018-10-18T02:51:07.585Z,11.47
2018-10-18T02:56:11.134Z,12.53
2018-10-18T03:01:14.681Z,8.93
2018-10-18T03:06:18.457Z,10.63
2018-10-18T03:11:22.061Z,10.93
2018-10-18T03:16:25.794Z,11.17
2018-10-18T03:21:29.504Z,11.90
2018-10-18T03:26:33.176Z,11.93
2018-10-18T03:31:36.723Z,15.93
2018-10-18T03:36:40.579Z,13.67
2018-10-18T03:41:44.239Z,16.43
2018-10-18T03:46:47.871Z,28.03
2018-10-18T03:51:59.420Z,42.97
2018-10-18T03:57:02.987Z,47.90
2018-10-18T04:02:07.898Z,49.40
2018-10-18T04:07:11.525Z,47.90
2018-10-18T04:12:15.196Z,49.30
2018-10-18T04:17:18.981Z,45.33
2018-10-18T04:22:22.649Z,44.77
2018-10-18T04:27:26.310Z,45.90
2018-10-18T04:32:29.946Z,45.47
2018-10-18T04:37:33.706Z,48.70
2018-10-18T04:42:37.331Z,46.37
2018-10-18T04:47:41.175Z,47.57
2018-10-18T04:52:44.758Z,44.73
2018-10-18T04:57:48.394Z,44.13
2018-10-18T05:02:52.101Z,46.43
2018-10-18T05:07:55.873Z,48.13
2018-10-18T05:13:00.212Z,50.93
2018-10-18T05:18:03.857Z,48.87
2018-10-18T05:23:07.772Z,51.97
2018-10-18T05:28:11.387Z,51.03
2018-10-18T05:33:15.091Z,49.73
2018-10-18T05:38:18.998Z,50.33
2018-10-18T05:43:24.757Z,52.50
2018-10-18T05:48:28.367Z,52.47
2018-10-18T05:53:33.038Z,51.73
2018-10-18T05:58:36.646Z,51.70
2018-10-18T06:03:40.370Z,52.70
2018-10-18T06:08:44.032Z,55.37
2018-10-18T06:13:53.836Z,51.20
2018-10-18T06:18:57.491Z,53.93
2018-10-18T06:24:01.062Z,53.60
2018-10-18T06:29:06.412Z,53.93
2018-10-18T06:34:10.139Z,126.87
2018-10-18T06:39:13.989Z,186.73
2018-10-18T06:44:17.778Z,176.30
2018-10-18T06:49:21.444Z,95.10
2018-10-18T06:54:26.419Z,43.57
2018-10-18T06:59:30.044Z,52.40
2018-10-18T07:04:34.189Z,47.23
2018-10-18T07:09:37.992Z,44.63
2018-10-18T07:14:41.740Z,44.10
2018-10-18T07:19:45.409Z,47.70
2018-10-18T07:24:49.228Z,41.13
2018-10-18T07:29:52.823Z,41.30
2018-10-18T07:34:57.537Z,41.37
2018-10-18T07:40:01.397Z,39.93
2018-10-18T07:45:05.378Z,38.87
2018-10-18T07:50:09.172Z,37.43
2018-10-18T07:55:12.872Z,37.30
2018-10-18T08:00:16.693Z,37.00
2018-10-18T08:05:20.175Z,35.10
2018-10-18T08:10:23.774Z,31.80
2018-10-18T08:15:27.477Z,31.03
2018-10-18T08:20:31.101Z,32.10
2018-10-18T08:25:35.006Z,32.87
2018-10-18T08:30:38.550Z,34.20
2018-10-18T08:35:42.346Z,29.77
2018-10-18T08:40:46.183Z,29.27
2018-10-18T08:45:49.997Z,29.70
2018-10-18T08:50:53.915Z,28.43
2018-10-18T08:55:57.616Z,27.90
2018-10-18T09:01:01.294Z,27.53
2018-10-18T09:06:05.514Z,28.17
2018-10-18T09:11:09.253Z,28.67
2018-10-18T09:16:13.045Z,31.97
2018-10-18T09:21:16.686Z,32.27
2018-10-18T09:26:20.291Z,31.53
2018-10-18T09:31:23.910Z,30.80
2018-10-18T09:36:27.588Z,30.50
2018-10-18T09:41:31.347Z,30.83
2018-10-18T09:46:36.038Z,29.10
2018-10-18T09:51:40.658Z,29.20
2018-10-18T09:56:44.299Z,30.77
2018-10-18T10:01:52.129Z,30.53
2018-10-18T10:06:55.736Z,29.27
2018-10-18T10:11:59.526Z,31.83
2018-10-18T10:17:03.158Z,30.83
2018-10-18T10:22:06.890Z,27.03
2018-10-18T10:27:10.708Z,33.23
2018-10-18T10:32:14.350Z,27.93
2018-10-18T10:37:22.264Z,31.20
2018-10-18T10:42:26.069Z,26.83
2018-10-18T10:47:29.828Z,31.53
2018-10-18T10:52:33.575Z,30.03
2018-10-18T10:57:37.335Z,31.37
2018-10-18T11:02:41.026Z,29.50
2018-10-18T11:07:46.260Z,35.17
2018-10-18T11:12:49.882Z,35.37
2018-10-18T11:17:53.590Z,31.77
2018-10-18T11:22:57.385Z,34.10
2018-10-18T11:28:01.098Z,37.17
2018-10-18T11:33:04.868Z,37.87
2018-10-18T11:38:10.052Z,32.47
2018-10-18T11:43:13.880Z,35.80
2018-10-18T11:48:17.519Z,36.90
2018-10-18T11:53:21.233Z,33.73
2018-10-18T11:58:25.092Z,35.23
2018-10-18T12:03:29.358Z,38.00
2018-10-18T12:08:33.188Z,38.43
2018-10-18T12:13:36.933Z,38.07
2018-10-18T12:18:40.888Z,39.10
2018-10-18T12:23:44.672Z,35.60
2018-10-18T12:28:48.482Z,34.70
2018-10-18T12:33:52.503Z,31.07
2018-10-18T12:38:56.271Z,32.70
2018-10-18T12:44:00.138Z,30.90
2018-10-18T12:49:04.023Z,33.00
2018-10-18T12:54:08.807Z,30.27
2018-10-18T12:59:13.690Z,31.90
2018-10-18T13:04:17.539Z,36.13
2018-10-18T13:09:21.311Z,37.53
2018-10-18T13:14:25.827Z,35.13
2018-10-18T13:19:29.722Z,34.67
2018-10-18T13:24:33.609Z,34.77
2018-10-18T13:29:37.427Z,41.57
2018-10-18T13:34:42.063Z,40.60
2018-10-18T13:39:45.701Z,36.27
2018-10-18T13:44:49.456Z,35.93
2018-10-18T13:49:53.328Z,39.33
2018-10-18T13:54:57.081Z,35.93
2018-10-18T14:00:29.007Z,31.67
2018-10-18T14:05:33.774Z,33.17
2018-10-18T14:10:37.758Z,32.30
2018-10-18T14:15:41.603Z,30.07
2018-10-18T14:20:46.486Z,30.27
2018-10-18T14:25:50.185Z,30.80
2018-10-18T14:30:53.970Z,29.97
2018-10-18T14:35:57.764Z,28.83
2018-10-18T14:41:01.515Z,27.13
2018-10-18T14:46:05.434Z,26.50
2018-10-18T14:51:12.450Z,26.70
2018-10-18T14:56:16.187Z,25.37
2018-10-18T15:01:19.926Z,25.43
2018-10-18T15:06:23.715Z,25.17
2018-10-18T15:11:27.558Z,23.53
2018-10-18T15:16:33.412Z,21.27
2018-10-18T15:21:37.005Z,19.27
2018-10-18T15:26:40.692Z,18.23
2018-10-18T15:31:45.218Z,18.87
2018-10-18T15:36:49.919Z,18.77
2018-10-18T15:41:58.422Z,17.47
2018-10-18T15:47:03.219Z,17.20
2018-10-18T15:52:06.826Z,18.27
2018-10-18T15:57:10.672Z,18.53
2018-10-18T16:02:14.271Z,19.40
2018-10-18T16:07:18.178Z,19.50
2018-10-18T16:12:21.902Z,19.10
2018-10-18T16:17:25.516Z,18.73
2018-10-18T16:22:30.373Z,18.63
2018-10-18T16:27:34.206Z,20.37
2018-10-18T16:32:38.144Z,19.07
2018-10-18T16:37:41.846Z,19.17
2018-10-18T16:42:45.420Z,19.17
2018-10-18T16:47:51.287Z,18.23
2018-10-18T16:52:54.974Z,18.83
2018-10-18T16:58:07.154Z,18.40
2018-10-18T17:03:11.796Z,17.00
2018-10-18T17:08:17.556Z,16.43
2018-10-18T17:13:21.242Z,16.23
2018-10-18T17:18:24.949Z,18.07
2018-10-18T17:23:28.490Z,15.97
2018-10-18T17:28:32.174Z,14.53
2018-10-18T17:33:35.886Z,15.27
2018-10-18T17:38:40.194Z,16.63
2018-10-18T17:43:43.858Z,13.37
2018-10-18T17:48:47.616Z,13.33
2018-10-18T17:53:52.488Z,13.30
2018-10-18T17:58:56.359Z,13.70
2018-10-18T18:04:00.170Z,13.17
2018-10-18T18:09:05.008Z,13.17
2018-10-18T18:14:08.697Z,12.07
2018-10-18T18:19:14.441Z,12.40
2018-10-18T18:24:18.166Z,12.73
2018-10-18T18:29:21.757Z,16.87
2018-10-18T18:34:25.514Z,13.13
2018-10-18T18:39:34.436Z,12.90
2018-10-18T18:44:38.452Z,13.17
2018-10-18T18:49:42.546Z,12.73
2018-10-18T18:54:46.194Z,11.93
2018-10-18T18:59:49.994Z,12.27
2018-10-18T19:04:54.927Z,11.13
2018-10-18T19:10:01.245Z,11.63
2018-10-18T19:15:07.615Z,13.90
2018-10-18T19:20:11.282Z,13.03
2018-10-18T19:25:15.351Z,14.03
2018-10-18T19:30:19.034Z,12.33
2018-10-18T19:35:22.807Z,17.33
2018-10-18T19:40:27.587Z,13.63
2018-10-18T19:45:31.276Z,12.20
2018-10-18T19:50:35.271Z,12.20
2018-10-18T19:55:44.145Z,12.53
2018-10-18T20:00:48.510Z,13.17
2018-10-18T20:05:53.407Z,27.00
2018-10-18T20:11:02.201Z,21.57
2018-10-18T20:16:06.379Z,21.57
2018-10-18T20:21:10.872Z,17.40
2018-10-18T20:26:15.837Z,13.77
2018-10-18T20:31:19.247Z,13.93
2018-10-18T20:36:22.886Z,12.07
2018-10-18T20:41:27.178Z,11.17
2018-10-18T20:46:30.863Z,9.87
2018-10-18T20:51:35.685Z,10.90
2018-10-18T20:56:39.430Z,9.13
2018-10-18T21:01:43.310Z,8.23
2018-10-18T21:06:46.902Z,8.30
2018-10-18T21:11:50.526Z,8.50
2018-10-18T21:16:54.452Z,8.40
2018-10-18T21:21:58.762Z,8.07
2018-10-18T21:27:02.380Z,8.10
2018-10-18T21:32:07.957Z,7.53
2018-10-18T21:37:11.480Z,6.07
2018-10-18T21:42:15.043Z,6.00
2018-10-18T21:47:18.878Z,6.23
2018-10-18T21:52:22.475Z,6.20
2018-10-18T21:57:26.121Z,4.97
2018-10-18T22:02:29.710Z,5.20
2018-10-18T22:07:33.283Z,5.50
2018-10-18T22:12:37.303Z,5.23
2018-10-18T22:17:40.930Z,5.07
2018-10-18T22:22:44.477Z,4.57
2018-10-18T22:27:49.072Z,4.70
2018-10-18T22:32:52.925Z,4.50
2018-10-18T22:37:57.587Z,4.87
2018-10-18T22:43:01.344Z,4.33
2018-10-18T22:48:05.178Z,5.17
2018-10-18T22:53:08.970Z,4.97
2018-10-18T22:58:12.463Z,5.03
2018-10-18T23:03:16.947Z,4.93
2018-10-18T23:08:20.550Z,5.17
2018-10-18T23:13:24.094Z,5.07
2018-10-18T23:18:27.625Z,5.40
2018-10-18T23:23:31.338Z,5.23
2018-10-18T23:28:34.870Z,5.20
2018-10-18T23:33:38.414Z,5.80
2018-10-18T23:38:42.127Z,4.93
2018-10-18T23:43:45.889Z,5.20
2018-10-18T23:48:49.422Z,5.30
2018-10-18T23:53:53.155Z,5.20
2018-10-18T23:58:56.824Z,6.00
